Time;durP1;ratioP1;P1;durP2;ratioP2;P2;SDS_P1;SDS_P2;PMS_P1;PMS_P2;Temp;Humidity;BMP_temperature;BMP_pressure;BME280_temperature;BME280_humidity;BME280_pressure;Samples;Min_cycle;Max_cycle;Signal;HPM_P1;HPM_P2
2021/12/14 00:01:10;;;;;;;8.87;7.97;;;12.00;75.20;;;14.60;57.47;102475.22;4974739;28;20608;-49
2021/12/14 00:03:43;;;;;;;12.43;9.70;;;12.00;75.10;;;14.57;57.48;102466.78;4975132;28;20208;-48
2021/12/14 00:06:12;;;;;;;8.93;7.93;;;11.90;74.80;;;14.51;57.73;102472.69;4975051;28;20284;-49
2021/12/14 00:08:54;;;;;;;10.80;8.67;;;12.00;74.80;;;14.50;57.75;102471.03;4975021;28;20213;-52
2021/12/14 00:11:32;;;;;;;10.60;7.93;;;12.00;74.90;;;14.53;57.61;102476.84;4971659;28;20196;-51
2021/12/14 00:16:51;;;;;;;7.53;6.83;;;11.90;75.00;;;14.56;57.58;102475.69;4956000;29;20197;-51
2021/12/14 00:19:20;;;;;;;10.57;8.43;;;11.90;74.90;;;14.56;57.56;102473.88;4956570;29;20185;-50
2021/12/14 00:21:51;;;;;;;9.00;8.10;;;11.90;74.80;;;14.56;57.80;102481.84;4955786;28;20662;-50
2021/12/14 00:24:23;;;;;;;9.13;8.23;;;11.90;74.90;;;14.58;57.63;102484.31;4959745;29;20194;-50
2021/12/14 00:26:55;;;;;;;10.20;8.03;;;11.90;74.90;;;14.60;57.52;102485.00;4959608;28;20174;-51
2021/12/14 00:29:28;;;;;;;11.77;8.47;;;11.90;74.80;;;14.56;57.45;102487.13;4958354;29;20288;-50
2021/12/14 00:32:00;;;;;;;7.83;7.03;;;12.00;74.60;;;14.59;57.68;102488.66;4957078;29;20189;-48
2021/12/14 00:34:37;;;;;;;9.40;7.93;;;12.00;74.80;;;14.64;57.51;102484.50;4957043;29;20205;-52
2021/12/14 00:37:06;;;;;;;11.70;10.03;;;12.00;74.90;;;14.68;57.46;102483.22;4956998;28;20279;-50
2021/12/14 00:39:34;;;;;;;9.53;8.60;;;12.00;74.80;;;14.68;57.17;102488.53;4956822;29;20195;-48
2021/12/14 00:42:02;;;;;;;9.83;8.83;;;12.00;74.60;;;14.68;56.87;102485.03;4967963;28;20275;-50
2021/12/14 00:44:33;;;;;;;10.63;8.70;;;12.00;74.40;;;14.65;57.01;102475.59;4978629;28;20196;-50
2021/12/14 00:47:02;;;;;;;8.90;7.60;;;12.00;74.40;;;14.67;56.85;102481.56;4978350;28;20197;-51
2021/12/14 00:49:30;;;;;;;11.43;8.50;;;12.00;74.50;;;14.66;57.11;102487.88;4978668;28;20698;-51
2021/12/14 00:51:57;;;;;;;9.90;8.90;;;12.00;74.30;;;14.64;57.28;102484.50;4967167;28;20190;-50
2021/12/14 00:54:25;;;;;;;10.80;8.60;;;12.00;74.30;;;14.63;56.98;102488.16;4957230;29;20194;-50
2021/12/14 00:56:54;;;;;;;10.80;8.77;;;12.00;74.20;;;14.63;56.96;102490.81;4944784;29;20205;-49
2021/12/14 00:59:22;;;;;;;11.00;9.10;;;12.00;74.20;;;14.62;57.17;102483.03;4942637;29;20194;-48
2021/12/14 01:01:54;;;;;;;11.00;8.63;;;12.00;74.10;;;14.56;56.77;102486.31;4941206;29;20204;-49
2021/12/14 01:04:30;;;;;;;12.03;8.53;;;12.00;73.90;;;14.53;57.18;102490.09;4940701;29;20674;-49
2021/12/14 01:06:59;;;;;;;9.20;8.30;;;12.00;74.10;;;14.56;57.18;102492.44;4941168;29;20197;-49
2021/12/14 01:09:32;;;;;;;9.57;8.43;;;11.90;73.90;;;14.50;56.82;102493.06;4941012;29;20253;-50
2021/12/14 01:12:11;;;;;;;8.93;7.70;;;11.90;73.70;;;14.51;57.00;102486.78;4940489;29;20197;-48
2021/12/14 01:14:48;;;;;;;8.03;7.23;;;11.90;73.90;;;14.54;57.15;102481.16;4939139;29;20226;-48
2021/12/14 01:20:13;;;;;;;9.47;8.47;;;11.90;73.90;;;14.55;56.94;102482.81;4940305;29;20189;-53
2021/12/14 01:22:46;;;;;;;9.90;8.27;;;11.90;73.60;;;14.57;56.92;102480.84;4939981;29;20222;-50
2021/12/14 01:25:19;;;;;;;8.80;6.87;;;11.90;73.60;;;14.61;56.55;102479.56;4940547;29;20304;-49
2021/12/14 01:27:54;;;;;;;10.43;7.57;;;11.90;73.80;;;14.63;56.31;102480.22;4941052;29;20194;-52
2021/12/14 01:30:31;;;;;;;7.90;7.20;;;11.90;73.80;;;14.68;56.46;102469.13;4942976;29;20299;-52
2021/12/14 01:33:05;;;;;;;8.73;7.83;;;11.90;73.80;;;14.73;56.53;102475.63;4941476;29;20204;-50
2021/12/14 01:35:37;;;;;;;7.83;6.93;;;12.00;73.70;;;14.80;56.19;102481.97;4938925;29;20228;-51
2021/12/14 01:38:21;;;;;;;9.77;7.33;;;12.00;73.70;;;14.85;56.02;102484.97;4938878;29;20276;-50
2021/12/14 01:41:06;;;;;;;8.07;7.27;;;12.00;73.40;;;14.83;55.76;102483.47;4938942;29;20201;-49
2021/12/14 01:43:41;;;;;;;9.67;8.00;;;12.00;73.40;;;14.84;55.93;102480.66;4920112;29;20194;-49
2021/12/14 01:46:15;;;;;;;8.50;7.70;;;12.00;73.20;;;14.83;55.41;102467.56;4920010;29;20221;-48
2021/12/14 01:48:44;;;;;;;9.00;8.00;;;12.00;73.00;;;14.81;55.40;102469.50;4928640;29;20205;-49
2021/12/14 01:51:13;;;;;;;8.57;7.37;;;12.00;72.70;;;14.76;55.26;102451.44;4938939;29;20198;-50
2021/12/14 01:53:44;;;;;;;9.10;7.60;;;12.00;72.30;;;14.71;55.40;102453.72;4938886;29;20198;-51
2021/12/14 01:56:18;;;;;;;9.33;8.30;;;12.00;72.30;;;14.66;55.26;102449.91;4945529;29;20221;-50
2021/12/14 01:58:51;;;;;;;9.10;7.20;;;12.00;71.90;;;14.65;55.20;102446.44;4949165;29;20205;-50
2021/12/14 02:01:28;;;;;;;8.73;7.37;;;12.00;72.00;;;14.65;55.35;102443.78;4941628;29;20220;-49
2021/12/14 02:04:07;;;;;;;9.57;7.47;;;12.00;72.20;;;14.70;55.30;102449.44;4960729;29;20184;-50
2021/12/14 02:06:35;;;;;;;8.67;6.87;;;12.00;72.20;;;14.73;55.67;102443.00;4961797;28;20247;-52
2021/12/14 02:09:08;;;;;;;8.90;5.97;;;11.90;72.00;;;14.73;55.35;102441.19;4947499;28;20300;-52
2021/12/14 02:11:47;;;;;;;9.00;6.93;;;11.90;72.20;;;14.76;55.23;102426.78;4942551;29;20196;-48
2021/12/14 02:14:17;;;;;;;9.57;7.50;;;11.90;72.10;;;14.79;55.21;102424.63;4941653;29;20241;-49
2021/12/14 02:16:50;;;;;;;9.30;7.17;;;11.90;72.00;;;14.77;54.71;102421.31;4940561;29;20673;-49
2021/12/14 02:19:18;;;;;;;8.17;6.87;;;12.00;71.90;;;14.77;55.11;102412.50;4940055;29;20205;-49
2021/12/14 02:21:52;;;;;;;8.90;8.00;;;12.00;71.90;;;14.74;54.56;102405.72;4945520;28;20652;-50
2021/12/14 02:24:22;;;;;;;7.90;6.73;;;11.90;72.40;;;14.72;54.80;102401.56;4958813;29;20189;-50
2021/12/14 02:26:52;;;;;;;8.00;7.20;;;12.00;71.40;;;14.72;54.84;102399.75;4943643;29;20201;-52
2021/12/14 02:29:26;;;;;;;7.30;5.73;;;12.00;71.60;;;14.70;54.79;102388.47;4940261;29;20257;-49
2021/12/14 02:32:02;;;;;;;9.37;7.23;;;12.00;71.60;;;14.62;54.46;102390.28;4946901;29;20194;-49
2021/12/14 02:34:30;;;;;;;7.80;6.30;;;12.00;71.10;;;14.62;54.80;102382.34;4959258;29;20549;-53
2021/12/14 02:36:59;;;;;;;7.30;6.40;;;11.90;71.70;;;14.62;55.01;102390.28;4959228;28;20219;-50
2021/12/14 02:39:48;;;;;;;7.57;6.87;;;11.90;71.30;;;14.63;55.05;102382.16;4945113;29;20197;-51
2021/12/14 02:42:23;;;;;;;7.27;6.47;;;11.90;71.30;;;14.63;54.91;102382.16;4923151;29;20658;-50
2021/12/14 02:44:54;;;;;;;9.77;6.90;;;11.90;72.20;;;14.62;54.98;102369.88;4940176;29;20220;-53
2021/12/14 02:47:24;;;;;;;8.10;6.93;;;11.90;71.30;;;14.61;54.81;102370.06;4939635;29;20198;-50
2021/12/14 02:49:52;;;;;;;7.63;6.80;;;11.90;71.20;;;14.65;54.77;102379.34;4940116;29;20675;-52
2021/12/14 02:52:35;;;;;;;7.50;6.60;;;11.90;71.20;;;14.66;54.51;102375.72;4941116;29;20259;-52
2021/12/14 02:55:10;;;;;;;10.27;7.23;;;11.90;71.30;;;14.57;54.45;102372.19;4939839;29;20630;-52
2021/12/14 02:57:43;;;;;;;7.90;6.77;;;11.90;71.00;;;14.59;54.47;102369.41;4939269;29;20292;-51
2021/12/14 03:00:16;;;;;;;7.10;6.03;;;11.90;71.00;;;14.59;54.55;102372.88;4940993;29;20205;-51
2021/12/14 03:02:45;;;;;;;9.47;7.27;;;11.90;71.10;;;14.55;54.34;102368.88;4940331;29;20689;-49
2021/12/14 03:05:20;;;;;;;11.30;7.67;;;11.90;70.50;;;14.46;54.64;102372.47;4941387;29;20556;-51
2021/12/14 03:07:57;;;;;;;6.50;5.87;;;11.90;70.40;;;14.45;54.67;102370.00;4940115;29;20280;-50
2021/12/14 03:13:08;;;;;;;8.13;6.80;;;11.80;70.60;;;14.53;54.46;102381.44;4936745;29;20228;-51
2021/12/14 03:15:46;;;;;;;7.60;6.77;;;11.80;70.60;;;14.54;54.47;102383.13;4939996;29;20372;-50
2021/12/14 03:18:17;;;;;;;7.10;6.40;;;11.80;71.40;;;14.55;54.18;102378.63;4939415;29;20198;-52
2021/12/14 03:20:49;;;;;;;7.87;6.03;;;11.80;70.70;;;14.55;54.43;102375.97;4939280;29;20186;-49
2021/12/14 03:23:24;;;;;;;6.57;5.73;;;11.80;70.80;;;14.55;54.41;102382.13;4941314;29;20228;-52
2021/12/14 03:25:55;;;;;;;8.70;6.23;;;11.80;70.70;;;14.54;54.40;102383.13;4939634;29;20205;-50
2021/12/14 03:28:27;;;;;;;6.33;5.73;;;11.80;70.30;;;14.56;54.41;102381.13;4938720;29;20198;-51
2021/12/14 03:31:20;;;;;;;7.50;5.73;;;11.80;70.50;;;14.55;54.28;102383.94;4936473;29;20328;-52
2021/12/14 03:33:55;;;;;;;8.73;6.57;;;11.80;70.60;;;14.61;54.28;102399.22;4917787;29;20281;-50
2021/12/14 03:36:28;;;;;;;6.97;5.90;;;11.80;70.40;;;14.63;54.11;102403.38;4917625;29;20217;-51
2021/12/14 03:39:07;;;;;;;7.07;6.27;;;11.80;70.50;;;14.65;53.93;102398.72;4925260;29;20194;-49
2021/12/14 03:41:39;;;;;;;8.47;6.87;;;11.80;70.30;;;14.66;53.78;102403.06;4936626;29;20539;-49
2021/12/14 03:44:14;;;;;;;6.70;6.00;;;11.80;70.30;;;14.64;53.99;102405.00;4936812;29;20207;-49
2021/12/14 03:46:49;;;;;;;7.70;6.83;;;11.80;70.40;;;14.64;53.88;102399.72;4936356;29;20188;-50
2021/12/14 03:49:21;;;;;;;7.97;6.47;;;11.70;70.30;;;14.63;53.66;102392.75;4935545;29;20299;-52
2021/12/14 03:51:51;;;;;;;6.80;6.10;;;11.70;70.40;;;14.62;53.91;102385.78;4936689;29;20190;-49
2021/12/14 03:54:20;;;;;;;6.50;5.80;;;11.70;70.30;;;14.63;53.59;102387.47;4936221;29;20608;-51
2021/12/14 03:56:49;;;;;;;7.17;6.47;;;11.70;70.40;;;14.66;53.98;102384.50;4936547;29;20212;-48
2021/12/14 03:59:18;;;;;;;7.93;7.13;;;11.70;70.30;;;14.67;53.85;102383.50;4936284;29;20197;-50
2021/12/14 04:01:50;;;;;;;7.97;7.03;;;11.70;70.00;;;14.68;53.84;102374.56;4936313;29;20190;-49
2021/12/14 04:04:24;;;;;;;9.57;8.30;;;11.70;70.10;;;14.67;53.57;102378.19;4936234;29;20265;-51
2021/12/14 04:06:57;;;;;;;7.60;6.77;;;11.70;70.00;;;14.69;53.77;102378.84;4936630;29;20269;-49
2021/12/14 04:09:30;;;;;;;7.37;6.50;;;11.70;70.00;;;14.68;53.46;102387.81;4936406;29;20205;-51
2021/12/14 04:11:59;;;;;;;7.83;6.70;;;11.70;69.90;;;14.65;53.54;102382.81;4936511;29;20186;-50
2021/12/14 04:14:29;;;;;;;6.67;6.07;;;11.70;69.90;;;14.62;53.22;102380.50;4936173;29;20198;-49
2021/12/14 04:16:59;;;;;;;10.93;6.80;;;11.70;70.00;;;14.61;53.52;102380.66;4936672;29;20194;-50
2021/12/14 04:19:29;;;;;;;10.60;6.97;;;11.70;70.00;;;14.59;53.49;102377.34;4936529;29;20202;-50
2021/12/14 04:22:03;;;;;;;6.83;6.03;;;11.70;69.70;;;14.58;53.43;102368.56;4938290;29;20194;-49
2021/12/14 04:24:37;;;;;;;6.97;6.00;;;11.70;69.70;;;14.57;53.45;102377.47;4938199;29;20200;-49
2021/12/14 04:27:10;;;;;;;7.70;6.90;;;11.70;69.90;;;14.59;53.43;102380.00;4937385;29;20200;-48
2021/12/14 04:29:38;;;;;;;6.83;6.13;;;11.70;69.80;;;14.61;53.42;102378.84;4936397;29;20214;-49
2021/12/14 04:32:10;;;;;;;8.10;7.40;;;11.70;69.60;;;14.62;53.00;102369.88;4938669;29;20550;-49
2021/12/14 04:34:38;;;;;;;7.27;6.50;;;11.70;69.50;;;14.61;53.13;102364.75;4940285;29;20682;-49
2021/12/14 04:37:08;;;;;;;6.77;6.10;;;11.70;69.50;;;14.60;53.43;102374.53;4940241;29;20193;-50
2021/12/14 04:39:43;;;;;;;7.23;6.53;;;11.70;69.60;;;14.61;53.45;102372.72;4939814;29;20198;-50
2021/12/14 04:53:43;;;;;;;7.30;6.40;;;11.70;69.50;;;14.61;53.26;102372.72;4939529;29;20198;-49
2021/12/14 04:56:16;;;;;;;8.90;7.53;;;11.70;69.60;;;14.60;53.06;102374.53;4946133;29;20225;-51
2021/12/14 04:58:53;;;;;;;9.87;8.10;;;11.70;69.30;;;14.58;53.02;102379.16;4954326;29;20289;-50
2021/12/14 05:01:21;;;;;;;7.70;6.83;;;11.70;69.20;;;14.60;53.63;102365.75;4940285;29;20196;-48
2021/12/14 05:03:53;;;;;;;9.33;7.90;;;11.70;69.30;;;14.63;53.03;102371.56;4957055;29;20197;-49
2021/12/14 05:06:25;;;;;;;8.47;7.57;;;11.70;69.10;;;14.61;53.16;102373.53;4958543;29;20296;-49
2021/12/14 05:11:44;;;;;;;11.03;8.43;;;11.80;70.10;;;14.58;53.07;102365.06;4940393;29;20230;-52
2021/12/14 05:14:12;;;;;;;8.90;8.00;;;11.70;69.00;;;14.61;53.16;102365.59;4958778;28;20208;-50
2021/12/14 05:16:41;;;;;;;9.80;8.80;;;11.70;69.40;;;14.66;52.97;102365.94;4958533;28;20224;-51
2021/12/14 05:19:33;;;;;;;9.67;8.67;;;11.70;69.40;;;14.69;53.38;102365.59;4949009;29;20201;-50
2021/12/14 05:22:06;;;;;;;9.97;9.03;;;11.70;69.50;;;14.69;53.23;102370.91;4942110;29;20207;-49
2021/12/14 05:24:38;;;;;;;10.87;9.77;;;11.70;69.60;;;14.67;53.23;102367.59;4958286;29;20633;-52
2021/12/14 05:27:14;;;;;;;9.77;8.77;;;11.70;69.60;;;14.66;52.92;102376.56;4958371;29;20223;-51
2021/12/14 05:29:41;;;;;;;10.60;8.20;;;11.70;69.70;;;14.68;53.28;102374.56;4946898;29;20201;-50
2021/12/14 05:32:10;;;;;;;9.87;8.87;;;11.80;69.80;;;14.71;53.15;102368.91;4942577;29;20231;-51
2021/12/14 05:34:39;;;;;;;12.33;8.93;;;11.80;69.80;;;14.74;53.29;102373.91;4957856;29;20415;-50
2021/12/14 05:37:07;;;;;;;11.53;10.33;;;11.80;69.80;;;14.76;53.30;102371.09;4958317;28;20291;-49
2021/12/14 05:44:39;;;;;;;11.33;9.70;;;11.80;69.90;;;14.73;52.97;102351.06;4968030;28;20174;-49
2021/12/14 05:47:11;;;;;;;15.60;9.20;;;11.70;69.70;;;14.71;53.32;102350.38;4959978;28;20207;-50
2021/12/14 05:49:44;;;;;;;9.67;8.43;;;11.70;69.90;;;14.70;53.41;102354.03;4947548;28;20256;-50
2021/12/14 05:52:16;;;;;;;9.13;8.23;;;11.80;70.10;;;14.72;53.27;102357.34;4942623;29;20643;-49
2021/12/14 05:54:44;;;;;;;9.63;8.63;;;11.80;70.20;;;14.73;53.06;102366.97;4958516;29;20295;-49
2021/12/14 05:57:17;;;;;;;11.33;9.40;;;11.70;70.00;;;14.72;53.42;102365.28;4958808;29;20201;-47
2021/12/14 05:59:47;;;;;;;10.07;8.97;;;11.80;70.10;;;14.69;53.61;102365.59;4946565;29;20208;-51
2021/12/14 06:02:15;;;;;;;12.47;9.50;;;11.80;70.10;;;14.72;53.45;102360.00;4943104;29;20205;-49
2021/12/14 06:04:46;;;;;;;13.27;9.10;;;11.80;70.20;;;14.72;53.50;102365.28;4957578;28;20217;-48
2021/12/14 06:07:14;;;;;;;9.50;8.60;;;11.80;70.30;;;14.72;53.27;102354.69;4957656;29;20204;-48
2021/12/14 06:09:46;;;;;;;8.27;7.30;;;11.80;70.30;;;14.74;53.64;102358.00;4946884;29;20697;-49
2021/12/14 06:12:17;;;;;;;11.93;9.67;;;11.80;70.40;;;14.74;53.68;102357.16;4941488;29;20200;-52
2021/12/14 06:14:55;;;;;;;11.33;9.33;;;11.80;70.30;;;14.74;53.44;102363.31;4956888;29;20213;-49
2021/12/14 06:17:29;;;;;;;15.83;9.37;;;11.80;70.30;;;14.74;53.40;102360.66;4957442;28;20191;-49
2021/12/14 06:20:00;;;;;;;10.13;9.10;;;11.80;70.10;;;14.75;53.60;102374.75;4944763;29;20288;-52
2021/12/14 06:22:27;;;;;;;10.57;9.37;;;11.80;70.10;;;14.74;53.42;102379.22;4942862;29;20201;-50
2021/12/14 06:25:00;;;;;;;10.53;8.53;;;11.80;70.30;;;14.72;53.59;102375.88;4956796;29;20303;-50
2021/12/14 06:27:31;;;;;;;10.13;8.27;;;11.80;70.40;;;14.73;53.73;102382.88;4957282;29;20197;-49
2021/12/14 06:30:04;;;;;;;10.83;8.43;;;11.80;70.50;;;14.71;53.68;102384.81;4944095;29;20615;-49
2021/12/14 06:32:35;;;;;;;10.07;8.80;;;11.80;70.50;;;14.69;53.43;102386.00;4942842;29;20197;-51
2021/12/14 06:35:09;;;;;;;11.03;8.43;;;11.70;70.40;;;14.66;53.50;102392.44;4945525;29;20690;-51
2021/12/14 06:38:22;;;;;;;11.40;9.30;;;11.70;70.40;;;14.64;53.58;102399.72;4936117;29;20189;-49
2021/12/14 06:41:06;;;;;;;9.53;8.63;;;11.70;70.60;;;14.67;53.44;102399.38;4937991;29;20288;-51
2021/12/14 06:43:38;;;;;;;11.03;8.30;;;11.70;70.60;;;14.66;53.69;102397.75;4950688;29;20197;-49
2021/12/14 06:46:11;;;;;;;12.07;9.60;;;11.70;70.60;;;14.66;53.55;102397.75;4956681;29;20737;-50
2021/12/14 06:48:44;;;;;;;11.37;10.13;;;11.70;70.70;;;14.64;53.62;102394.41;4955703;29;20231;-49
2021/12/14 06:51:17;;;;;;;12.57;8.93;;;11.70;70.70;;;14.62;53.83;102395.59;4937264;29;20221;-50
2021/12/14 06:53:49;;;;;;;10.70;9.67;;;11.70;70.80;;;14.61;53.90;102389.44;4952277;28;20201;-48
2021/12/14 06:56:21;;;;;;;11.73;9.70;;;11.70;70.80;;;14.61;54.07;102384.16;4956092;28;20221;-49
2021/12/14 06:58:54;;;;;;;11.33;9.57;;;11.70;70.90;;;14.61;53.77;102389.44;4954510;28;20186;-48
2021/12/14 07:01:26;;;;;;;11.60;9.37;;;11.70;71.10;;;14.63;54.38;102392.75;4936959;29;20183;-49
2021/12/14 07:04:00;;;;;;;11.17;9.97;;;11.60;71.10;;;14.62;54.23;102391.09;4952587;28;20248;-52
2021/12/14 07:06:33;;;;;;;12.40;10.70;;;11.70;71.30;;;14.59;54.11;102393.25;4955698;28;20217;-49
2021/12/14 07:09:10;;;;;;;11.80;10.30;;;11.70;71.10;;;14.59;54.12;102406.50;4951618;29;20205;-52
2021/12/14 07:11:40;;;;;;;13.40;10.60;;;11.70;71.30;;;14.59;54.39;102407.34;4937504;29;20591;-49
2021/12/14 07:14:36;;;;;;;11.00;9.90;;;11.70;71.30;;;14.57;54.33;102409.28;4954224;29;20595;-49
2021/12/14 07:17:16;;;;;;;12.03;10.57;;;11.70;71.40;;;14.58;54.15;102410.97;4955500;29;20203;-49
2021/12/14 07:19:48;;;;;;;12.67;10.60;;;11.70;71.50;;;14.59;54.10;102407.34;4946699;29;20197;-50
2021/12/14 07:22:39;;;;;;;11.40;9.77;;;11.70;71.60;;;14.55;54.43;102403.31;4936890;29;20205;-49
2021/12/14 07:25:14;;;;;;;11.27;10.17;;;11.70;71.70;;;14.57;54.54;102406.63;4936687;29;20214;-49
2021/12/14 07:27:42;;;;;;;13.87;11.37;;;11.70;71.70;;;14.58;54.54;102408.31;4936614;29;20200;-50
2021/12/14 07:30:18;;;;;;;13.13;11.67;;;11.70;71.80;;;14.57;54.48;102408.47;4935883;29;20558;-49
2021/12/14 07:33:00;;;;;;;16.03;11.87;;;11.70;71.70;;;14.56;54.56;102412.94;4942743;29;20199;-50
2021/12/14 07:35:37;;;;;;;12.53;10.23;;;11.70;71.90;;;14.55;54.55;102413.06;4955439;29;20217;-50
2021/12/14 07:38:29;;;;;;;12.90;10.30;;;11.70;71.90;;;14.56;54.75;102412.09;4955715;29;20561;-50
2021/12/14 07:41:07;;;;;;;12.93;11.53;;;11.70;72.10;;;14.60;54.80;102419.56;4919843;29;20257;-50
2021/12/14 07:43:42;;;;;;;15.27;12.77;;;11.70;72.10;;;14.62;54.90;102412.28;4948577;28;20287;-49
2021/12/14 07:46:23;;;;;;;15.00;11.97;;;11.70;72.10;;;14.60;54.93;102416.94;4954896;28;20216;-49
2021/12/14 07:48:56;;;;;;;12.33;10.93;;;11.70;72.20;;;14.63;54.67;102413.97;4953713;29;20209;-48
2021/12/14 07:51:28;;;;;;;15.73;12.70;;;11.70;72.20;;;14.65;55.14;102417.28;4936345;29;20753;-50
2021/12/14 07:54:03;;;;;;;14.30;11.63;;;11.70;72.20;;;14.65;55.18;102419.94;4938554;29;20277;-49
2021/12/14 07:56:38;;;;;;;16.40;13.40;;;11.70;72.40;;;14.67;54.92;102425.91;4934630;29;20266;-50
2021/12/14 07:59:19;;;;;;;15.10;11.83;;;11.70;72.40;;;14.67;55.05;102425.06;4954669;29;20197;-49
2021/12/14 08:01:51;;;;;;;15.63;13.97;;;11.70;72.40;;;14.66;55.05;102432.22;4955317;28;20594;-50
2021/12/14 08:04:19;;;;;;;17.53;15.73;;;11.80;72.40;;;14.67;54.98;102431.19;4955017;28;20197;-52
2021/12/14 08:06:53;;;;;;;15.87;12.47;;;11.80;72.40;;;14.64;54.89;102434.16;4954900;28;20217;-49
2021/12/14 08:09:46;;;;;;;16.10;12.83;;;11.80;72.50;;;14.64;55.11;102428.84;4955325;28;20205;-49
2021/12/14 08:12:35;;;;;;;16.83;13.63;;;11.80;72.50;;;14.65;55.27;102438.47;4969271;28;20240;-50
2021/12/14 08:15:22;;;;;;;15.07;13.47;;;11.80;72.40;;;14.64;55.11;102442.09;4955364;29;20716;-49
2021/12/14 08:18:06;;;;;;;16.10;13.83;;;11.80;72.50;;;14.66;55.38;102449.91;4955371;29;20205;-49
2021/12/14 08:20:40;;;;;;;17.03;13.90;;;11.80;72.70;;;14.65;55.20;102449.09;4955181;29;20607;-51
2021/12/14 08:23:17;;;;;;;15.37;13.60;;;11.80;72.70;;;14.66;55.03;102450.75;4955062;28;20276;-48
2021/12/14 08:25:46;;;;;;;17.83;14.33;;;11.80;72.80;;;14.67;55.62;102452.41;4955095;28;20224;-50
2021/12/14 08:28:14;;;;;;;18.17;15.90;;;11.80;72.90;;;14.68;55.39;102459.38;4955344;28;20272;-50
2021/12/14 08:31:05;;;;;;;18.83;14.07;;;11.80;73.00;;;14.68;55.61;102453.25;4954950;28;20221;-50
2021/12/14 08:33:33;;;;;;;17.07;14.83;;;11.80;73.00;;;14.67;55.58;102460.34;4954997;29;20633;-51
2021/12/14 08:36:07;;;;;;;16.67;14.83;;;11.80;73.10;;;14.68;55.27;102464.69;4954143;28;20223;-52
2021/12/14 08:38:36;;;;;;;17.47;15.63;;;11.80;73.20;;;14.70;55.39;102469.81;4952814;28;20275;-50
2021/12/14 08:41:16;;;;;;;20.60;15.57;;;11.80;73.10;;;14.67;55.54;102467.47;4940651;29;20292;-52
2021/12/14 08:43:50;;;;;;;17.33;15.20;;;11.80;73.20;;;14.67;55.69;102463.00;4939070;28;20202;-51
2021/12/14 08:46:22;;;;;;;17.93;15.20;;;11.80;73.20;;;14.67;55.58;102467.47;4938947;29;20229;-51
2021/12/14 08:48:53;;;;;;;16.43;14.20;;;11.80;73.30;;;14.68;55.76;102464.69;4939097;28;20213;-51
2021/12/14 08:51:27;;;;;;;17.97;15.53;;;11.80;73.40;;;14.69;55.64;102463.66;4936450;28;20226;-49
2021/12/14 08:54:04;;;;;;;18.80;15.17;;;11.80;73.50;;;14.69;55.76;102466.31;4937526;29;20288;-51
2021/12/14 08:56:37;;;;;;;22.23;17.53;;;11.80;73.50;;;14.71;55.82;102461.69;4937197;28;20231;-53
2021/12/14 08:59:06;;;;;;;20.83;17.13;;;11.80;73.50;;;14.73;55.80;102462.38;4938349;28;20263;-52
2021/12/14 09:01:40;;;;;;;20.50;17.13;;;11.80;73.70;;;14.74;55.77;102464.03;4939078;28;20200;-51
2021/12/14 09:04:15;;;;;;;20.83;16.33;;;11.80;73.80;;;14.72;55.96;102460.72;4940160;28;20232;-48
2021/12/14 09:06:48;;;;;;;20.27;15.60;;;11.80;73.80;;;14.73;55.62;102450.94;4940118;28;20215;-55
2021/12/14 09:09:22;;;;;;;20.00;16.30;;;11.80;73.90;;;14.76;56.09;102455.94;4940491;28;20197;-55
2021/12/14 09:11:57;;;;;;;17.03;15.17;;;11.80;74.10;;;14.80;56.27;102452.81;4929016;28;20263;-50
2021/12/14 09:14:28;;;;;;;20.63;17.20;;;11.90;74.30;;;14.84;55.89;102459.44;4939696;28;20212;-52
2021/12/14 09:16:58;;;;;;;22.10;17.97;;;11.80;74.20;;;14.87;56.00;102453.81;4940694;28;20236;-51
2021/12/14 09:19:31;;;;;;;19.67;17.13;;;11.90;74.20;;;14.85;56.12;102453.16;4942006;28;20260;-54
2021/12/14 09:22:05;;;;;;;22.27;18.90;;;11.90;74.20;;;14.85;56.13;102457.63;4943123;28;20200;-53
2021/12/14 09:24:34;;;;;;;21.10;17.00;;;11.90;74.40;;;14.87;56.27;102459.13;4943370;28;20825;-51
2021/12/14 09:27:06;;;;;;;20.57;17.90;;;11.90;74.40;;;14.90;56.14;102461.44;4943493;28;20239;-52
2021/12/14 09:29:34;;;;;;;23.27;19.27;;;11.90;74.60;;;14.93;55.89;102462.13;4943165;28;20205;-53
2021/12/14 09:32:09;;;;;;;23.27;18.67;;;11.90;74.60;;;14.91;56.24;102459.63;4943712;28;20217;-51
2021/12/14 09:34:40;;;;;;;20.27;17.33;;;11.90;74.70;;;14.90;56.34;102453.47;4943873;28;20751;-49
2021/12/14 09:37:12;;;;;;;24.23;20.00;;;11.90;74.70;;;14.91;56.21;102465.75;4943040;28;20205;-53
2021/12/14 09:39:46;;;;;;;20.83;18.40;;;11.90;74.90;;;14.90;56.28;102458.78;4944264;28;20545;-50
2021/12/14 09:42:21;;;;;;;21.77;18.73;;;11.90;74.90;;;14.90;56.57;102461.44;4942514;28;20662;-51
2021/12/14 09:44:53;;;;;;;20.87;17.27;;;11.90;75.00;;;14.91;56.49;102463.09;4942623;28;20231;-52
2021/12/14 09:47:30;;;;;;;21.53;18.30;;;11.90;75.10;;;14.91;56.47;102463.09;4942799;28;20244;-53
2021/12/14 09:50:04;;;;;;;24.73;19.17;;;11.90;75.10;;;14.93;56.65;102458.47;4943948;28;20196;-51
2021/12/14 09:52:37;;;;;;;23.23;20.60;;;11.90;75.20;;;14.91;56.50;102460.47;4937683;28;20245;-50
2021/12/14 09:55:10;;;;;;;27.20;20.27;;;11.90;75.30;;;14.91;56.72;102460.47;4937888;28;20296;-52
2021/12/14 09:57:45;;;;;;;24.17;20.63;;;11.90;75.40;;;14.90;56.85;102456.13;4917515;29;20229;-54
2021/12/14 10:00:20;;;;;;;23.10;18.63;;;11.90;75.60;;;14.88;56.78;102450.16;4915963;29;20618;-53
2021/12/14 10:02:53;;;;;;;25.53;20.80;;;11.90;75.60;;;14.87;56.77;102453.00;4899213;29;20233;-53
2021/12/14 10:05:28;;;;;;;22.97;18.67;;;11.90;75.60;;;14.89;57.12;102445.69;4913577;29;20246;-52
2021/12/14 10:08:00;;;;;;;23.33;19.90;;;11.90;75.60;;;14.91;56.96;102444.56;4913538;29;20896;-53
2021/12/14 10:10:31;;;;;;;27.00;20.50;;;12.00;75.80;;;14.98;57.22;102441.25;4914621;29;20213;-56
2021/12/14 10:12:59;;;;;;;24.87;20.73;;;12.00;75.90;;;15.04;56.81;102448.56;4913652;29;20241;-52
2021/12/14 10:15:34;;;;;;;24.87;21.00;;;12.00;75.90;;;15.05;56.53;102452.91;4914863;29;20300;-53
2021/12/14 10:18:08;;;;;;;24.93;21.67;;;12.00;75.90;;;15.04;56.94;102456.53;4900760;29;20835;-55
2021/12/14 10:20:42;;;;;;;23.73;20.00;;;12.00;75.90;;;15.04;56.62;102459.19;4914232;29;20405;-55
2021/12/14 10:23:18;;;;;;;27.83;22.83;;;12.00;75.90;;;15.06;57.05;102457.19;4879887;29;20297;-51
2021/12/14 10:25:48;;;;;;;30.80;23.23;;;12.00;75.90;;;15.08;57.02;102460.50;4895616;29;20230;-54
2021/12/14 10:28:25;;;;;;;29.23;21.53;;;12.10;76.10;;;15.06;56.76;102462.50;4897029;29;20207;-49
2021/12/14 10:31:00;;;;;;;25.90;20.83;;;12.10;76.00;;;15.07;57.13;102453.56;4897022;29;20205;-52
2021/12/14 10:33:33;;;;;;;30.83;23.50;;;12.10;75.90;;;15.07;56.87;102472.13;4897242;29;20211;-56
2021/12/14 10:36:39;;;;;;;29.50;23.80;;;12.10;75.90;;;15.00;57.29;102468.44;4896804;29;20555;-52
2021/12/14 10:45:06;;;;;;;27.13;22.60;;;12.10;76.00;;;15.03;57.40;102468.09;4895663;29;20258;-51
2021/12/14 10:47:35;;;;;;;27.43;21.00;;;12.10;76.20;;;15.07;57.62;102474.78;4899492;29;20309;-50
2021/12/14 10:50:14;;;;;;;26.17;21.67;;;12.10;76.20;;;15.08;57.10;102465.81;4897533;29;20820;-51
2021/12/14 10:52:43;;;;;;;27.77;23.17;;;12.10;76.20;;;15.13;57.15;102464.34;4898507;29;20250;-53
2021/12/14 10:55:19;;;;;;;29.83;24.00;;;12.20;76.20;;;15.15;57.34;102477.44;4896214;29;20234;-52
2021/12/14 10:57:47;;;;;;;26.67;22.57;;;12.20;76.10;;;15.17;57.38;102465.66;4881208;29;20206;-55
2021/12/14 11:00:29;;;;;;;30.00;24.07;;;12.20;75.90;;;15.16;57.24;102460.53;4896064;29;20229;-50
2021/12/14 11:03:02;;;;;;;30.40;22.80;;;12.20;75.90;;;15.17;57.33;102456.88;4895173;29;20233;-53
2021/12/14 11:05:32;;;;;;;29.80;23.97;;;12.20;75.90;;;15.16;56.98;102457.88;4893814;29;20234;-53